DLH31T EDDM-EDDH
Flight info
| Callsign | DLH31T |
|---|---|
| Flight time | 1h 2m |
| Altitude | 36000 |
| Route | INPUD2N/26R INPUD Y102 UPALA M726 NARUS DCT ABGUS DCT DIRBO T902 RARUP RARUP6A |
| Aircraft | B738/M-SDE2E3FGHIRWXY/LB1 |
Departure
| Time | 2026-05-07 13:13 |
|---|---|
| Airport | Munich Airport (EDDM) |
Arrival
| Time | 2026-05-07 14:15 |
|---|---|
| Airport | Hamburg Helmut Schmidt Airport (EDDH) |
| Time | Latitude | Longitude | Altitude | Speed | Heading |
|---|---|---|---|---|---|
| 2026-05-07 12:40 | 48.35376 | 11.80278 | 1466 ft | 0 kts | 83° |
| 2026-05-07 13:00 | 48.35376 | 11.80273 | 1466 ft | 2 kts | 82° |
| 2026-05-07 13:00 | 48.35373 | 11.80249 | 1457 ft | 2 kts | 77° |
| 2026-05-07 13:01 | 48.35368 | 11.80225 | 1456 ft | 2 kts | 66° |
| 2026-05-07 13:01 | 48.35359 | 11.80205 | 1460 ft | 2 kts | 30° |
| 2026-05-07 13:01 | 48.35344 | 11.80199 | 1456 ft | 2 kts | 356° |
| 2026-05-07 13:01 | 48.35339 | 11.80199 | 1461 ft | 0 kts | 354° |
| 2026-05-07 13:05 | 48.35354 | 11.80197 | 1462 ft | 7 kts | 353° |
| 2026-05-07 13:05 | 48.35404 | 11.80177 | 1462 ft | 8 kts | 344° |
| 2026-05-07 13:05 | 48.35481 | 11.80159 | 1466 ft | 17 kts | 354° |
| 2026-05-07 13:05 | 48.35612 | 11.80132 | 1464 ft | 19 kts | 346° |
| 2026-05-07 13:06 | 48.35737 | 11.80071 | 1463 ft | 19 kts | 351° |
| 2026-05-07 13:06 | 48.35840 | 11.79980 | 1464 ft | 18 kts | 291° |
| 2026-05-07 13:06 | 48.35835 | 11.79797 | 1459 ft | 17 kts | 263° |
| 2026-05-07 13:06 | 48.35822 | 11.79620 | 1466 ft | 17 kts | 262° |
| 2026-05-07 13:07 | 48.35851 | 11.79519 | 1464 ft | 11 kts | 345° |
| 2026-05-07 13:07 | 48.35927 | 11.79501 | 1466 ft | 11 kts | 1° |
| 2026-05-07 13:07 | 48.36001 | 11.79493 | 1459 ft | 11 kts | 342° |
| 2026-05-07 13:07 | 48.36073 | 11.79487 | 1466 ft | 10 kts | 9° |
| 2026-05-07 13:08 | 48.36143 | 11.79476 | 1462 ft | 10 kts | 349° |
| 2026-05-07 13:08 | 48.36207 | 11.79496 | 1467 ft | 10 kts | 49° |
| 2026-05-07 13:08 | 48.36223 | 11.79594 | 1458 ft | 10 kts | 84° |
| 2026-05-07 13:08 | 48.36230 | 11.79701 | 1467 ft | 13 kts | 84° |
| 2026-05-07 13:09 | 48.36242 | 11.79854 | 1467 ft | 20 kts | 83° |
| 2026-05-07 13:09 | 48.36262 | 11.80105 | 1467 ft | 29 kts | 83° |
| 2026-05-07 13:09 | 48.36289 | 11.80443 | 1467 ft | 36 kts | 84° |
| 2026-05-07 13:09 | 48.36317 | 11.80812 | 1464 ft | 35 kts | 83° |
| 2026-05-07 13:10 | 48.36345 | 11.81166 | 1464 ft | 33 kts | 82° |
| 2026-05-07 13:10 | 48.36369 | 11.81497 | 1466 ft | 31 kts | 84° |
| 2026-05-07 13:10 | 48.36390 | 11.81761 | 1465 ft | 20 kts | 82° |
| 2026-05-07 13:10 | 48.36393 | 11.81962 | 1457 ft | 19 kts | 86° |
| 2026-05-07 13:11 | 48.36465 | 11.82005 | 1465 ft | 12 kts | 354° |
| 2026-05-07 13:11 | 48.36549 | 11.81991 | 1463 ft | 15 kts | 356° |
| 2026-05-07 13:11 | 48.36656 | 11.81935 | 1460 ft | 18 kts | 305° |
| 2026-05-07 13:11 | 48.36666 | 11.81843 | 1465 ft | 0 kts | 264° |
| 2026-05-07 13:12 | 48.36658 | 11.81726 | 1465 ft | 39 kts | 264° |
| 2026-05-07 13:12 | 48.36605 | 11.80978 | 1466 ft | 103 kts | 264° |
| 2026-05-07 13:12 | 48.36511 | 11.79640 | 1469 ft | 153 kts | 265° |
| 2026-05-07 13:12 | 48.36379 | 11.77943 | 1894 ft | 172 kts | 267° |
| 2026-05-07 13:13 | 48.36266 | 11.76087 | 2607 ft | 181 kts | 265° |
| 2026-05-07 13:13 | 48.36103 | 11.74122 | 3187 ft | 191 kts | 264° |
| 2026-05-07 13:13 | 48.35923 | 11.72082 | 3654 ft | 207 kts | 264° |
| 2026-05-07 13:13 | 48.35731 | 11.69880 | 4175 ft | 216 kts | 265° |
| 2026-05-07 13:14 | 48.35972 | 11.67678 | 4877 ft | 217 kts | 297° |
| 2026-05-07 13:14 | 48.37016 | 11.65993 | 5451 ft | 231 kts | 324° |
| 2026-05-07 13:14 | 48.38546 | 11.65074 | 6000 ft | 244 kts | 343° |
| 2026-05-07 13:14 | 48.40270 | 11.64552 | 6433 ft | 263 kts | 346° |
| 2026-05-07 13:15 | 48.42104 | 11.64070 | 7117 ft | 271 kts | 347° |
| 2026-05-07 13:15 | 48.43961 | 11.63488 | 7913 ft | 273 kts | 341° |
| 2026-05-07 13:15 | 48.45773 | 11.62604 | 8766 ft | 275 kts | 337° |
| 2026-05-07 13:15 | 48.47584 | 11.61618 | 9601 ft | 279 kts | 337° |
| 2026-05-07 13:16 | 48.49418 | 11.60606 | 10338 ft | 285 kts | 337° |
| 2026-05-07 13:16 | 48.51328 | 11.59555 | 10575 ft | 309 kts | 337° |
| 2026-05-07 13:16 | 48.53424 | 11.58412 | 10808 ft | 330 kts | 338° |
| 2026-05-07 13:16 | 48.55622 | 11.57230 | 11373 ft | 339 kts | 338° |
| 2026-05-07 13:17 | 48.57861 | 11.56038 | 12141 ft | 343 kts | 338° |
| 2026-05-07 13:17 | 48.60119 | 11.54841 | 12953 ft | 345 kts | 338° |
| 2026-05-07 13:17 | 48.62400 | 11.53635 | 13748 ft | 349 kts | 338° |
| 2026-05-07 13:17 | 48.64705 | 11.52416 | 14480 ft | 353 kts | 338° |
| 2026-05-07 13:18 | 48.67041 | 11.51181 | 15198 ft | 358 kts | 338° |
| 2026-05-07 13:18 | 48.69405 | 11.49930 | 15936 ft | 362 kts | 338° |
| 2026-05-07 13:18 | 48.71793 | 11.48665 | 16672 ft | 366 kts | 338° |
| 2026-05-07 13:18 | 48.74214 | 11.47381 | 17374 ft | 371 kts | 338° |
| 2026-05-07 13:19 | 48.76662 | 11.46082 | 18079 ft | 375 kts | 338° |
| 2026-05-07 13:19 | 48.79142 | 11.44764 | 18730 ft | 379 kts | 338° |
| 2026-05-07 13:19 | 48.81634 | 11.43439 | 19496 ft | 381 kts | 338° |
| 2026-05-07 13:19 | 48.84144 | 11.42103 | 20160 ft | 384 kts | 338° |
| 2026-05-07 13:20 | 48.86678 | 11.40753 | 20833 ft | 387 kts | 338° |
| 2026-05-07 13:20 | 48.89230 | 11.39392 | 21510 ft | 391 kts | 338° |
| 2026-05-07 13:20 | 48.91809 | 11.38015 | 22144 ft | 394 kts | 338° |
| 2026-05-07 13:20 | 48.94403 | 11.36628 | 22769 ft | 397 kts | 338° |
| 2026-05-07 13:21 | 48.97022 | 11.35226 | 23352 ft | 400 kts | 338° |
| 2026-05-07 13:21 | 48.99659 | 11.33813 | 23862 ft | 403 kts | 338° |
| 2026-05-07 13:21 | 49.02316 | 11.32387 | 24341 ft | 406 kts | 338° |
| 2026-05-07 13:21 | 49.04982 | 11.30956 | 24832 ft | 408 kts | 338° |
| 2026-05-07 13:22 | 49.07669 | 11.29511 | 25305 ft | 410 kts | 338° |
| 2026-05-07 13:22 | 49.10369 | 11.28057 | 25748 ft | 413 kts | 338° |
| 2026-05-07 13:22 | 49.13089 | 11.26591 | 26246 ft | 415 kts | 338° |
| 2026-05-07 13:22 | 49.15824 | 11.25116 | 26720 ft | 418 kts | 338° |
| 2026-05-07 13:23 | 49.18534 | 11.23653 | 27160 ft | 420 kts | 339° |
| 2026-05-07 13:23 | 49.21372 | 11.22466 | 27571 ft | 425 kts | 347° |
| 2026-05-07 13:23 | 49.24323 | 11.21966 | 27978 ft | 430 kts | 356° |
| 2026-05-07 13:23 | 49.27323 | 11.21972 | 28398 ft | 432 kts | 358° |
| 2026-05-07 13:24 | 49.30340 | 11.22053 | 28791 ft | 435 kts | 359° |
| 2026-05-07 13:24 | 49.33372 | 11.22141 | 29160 ft | 437 kts | 359° |
| 2026-05-07 13:24 | 49.36425 | 11.22210 | 29517 ft | 440 kts | 359° |
| 2026-05-07 13:24 | 49.39494 | 11.22258 | 29872 ft | 442 kts | 359° |
| 2026-05-07 13:25 | 49.42574 | 11.22292 | 30195 ft | 444 kts | 359° |
| 2026-05-07 13:25 | 49.45670 | 11.22319 | 30492 ft | 446 kts | 359° |
| 2026-05-07 13:25 | 49.48771 | 11.22345 | 30835 ft | 446 kts | 359° |
| 2026-05-07 13:25 | 49.51875 | 11.22371 | 31176 ft | 446 kts | 359° |
| 2026-05-07 13:26 | 49.54983 | 11.22399 | 31488 ft | 447 kts | 359° |
| 2026-05-07 13:26 | 49.58099 | 11.22420 | 31816 ft | 448 kts | 359° |
| 2026-05-07 13:26 | 49.61214 | 11.22433 | 32139 ft | 449 kts | 359° |
| 2026-05-07 13:26 | 49.64342 | 11.22445 | 32445 ft | 450 kts | 359° |
| 2026-05-07 13:27 | 49.67477 | 11.22457 | 32757 ft | 450 kts | 359° |
| 2026-05-07 13:27 | 49.70615 | 11.22470 | 33047 ft | 452 kts | 359° |
| 2026-05-07 13:27 | 49.72699 | 11.22480 | 33228 ft | 452 kts | 359° |
| 2026-05-07 13:27 | 49.75853 | 11.22494 | 33513 ft | 454 kts | 359° |
| 2026-05-07 13:28 | 49.79011 | 11.22508 | 33810 ft | 455 kts | 358° |
| 2026-05-07 13:28 | 49.82178 | 11.22519 | 34085 ft | 455 kts | 358° |
| 2026-05-07 13:28 | 49.86375 | 11.22532 | 34438 ft | 456 kts | 358° |
| 2026-05-07 13:28 | 49.88520 | 11.22539 | 34615 ft | 456 kts | 358° |
| 2026-05-07 13:29 | 49.92723 | 11.22551 | 34941 ft | 457 kts | 358° |
| 2026-05-07 13:29 | 49.94871 | 11.22558 | 35104 ft | 457 kts | 358° |
| 2026-05-07 13:29 | 49.98048 | 11.22569 | 35346 ft | 457 kts | 358° |
| 2026-05-07 13:29 | 50.01239 | 11.22579 | 35585 ft | 458 kts | 358° |
| 2026-05-07 13:30 | 50.04426 | 11.22590 | 35824 ft | 458 kts | 358° |
| 2026-05-07 13:30 | 50.07577 | 11.22600 | 35985 ft | 460 kts | 358° |
| 2026-05-07 13:30 | 50.14032 | 11.22639 | 35990 ft | 464 kts | 359° |
| 2026-05-07 13:31 | 50.20457 | 11.22689 | 35975 ft | 458 kts | 359° |
| 2026-05-07 13:31 | 50.26809 | 11.22735 | 35983 ft | 456 kts | 359° |
| 2026-05-07 13:32 | 50.33144 | 11.22779 | 35987 ft | 455 kts | 359° |
| 2026-05-07 13:32 | 50.39466 | 11.22488 | 35988 ft | 454 kts | 354° |
| 2026-05-07 13:33 | 50.45750 | 11.21472 | 36009 ft | 455 kts | 352° |
| 2026-05-07 13:33 | 50.52058 | 11.20425 | 35986 ft | 457 kts | 353° |
| 2026-05-07 13:34 | 50.61555 | 11.18988 | 35988 ft | 457 kts | 353° |
| 2026-05-07 13:35 | 50.67886 | 11.18047 | 36000 ft | 457 kts | 354° |
| 2026-05-07 13:35 | 50.74231 | 11.17334 | 36012 ft | 457 kts | 355° |
| 2026-05-07 13:36 | 50.80579 | 11.16716 | 36030 ft | 457 kts | 355° |
| 2026-05-07 13:36 | 50.86922 | 11.16077 | 36048 ft | 457 kts | 355° |
| 2026-05-07 13:37 | 50.93269 | 11.15413 | 36044 ft | 457 kts | 355° |
| 2026-05-07 13:37 | 50.99613 | 11.14738 | 36052 ft | 457 kts | 355° |
| 2026-05-07 13:38 | 51.05960 | 11.14062 | 36039 ft | 457 kts | 355° |
| 2026-05-07 13:38 | 51.12267 | 11.13388 | 36035 ft | 457 kts | 355° |
| 2026-05-07 13:39 | 51.18613 | 11.12709 | 36038 ft | 457 kts | 355° |
| 2026-05-07 13:39 | 51.24956 | 11.12028 | 36033 ft | 457 kts | 355° |
| 2026-05-07 13:40 | 51.31304 | 11.11345 | 36036 ft | 457 kts | 355° |
| 2026-05-07 13:40 | 51.37660 | 11.10658 | 36027 ft | 458 kts | 355° |
| 2026-05-07 13:41 | 51.44038 | 11.09968 | 36040 ft | 459 kts | 355° |
| 2026-05-07 13:41 | 51.50415 | 11.09276 | 36027 ft | 459 kts | 355° |
| 2026-05-07 13:42 | 51.56785 | 11.08583 | 36025 ft | 458 kts | 355° |
| 2026-05-07 13:42 | 51.63155 | 11.07887 | 36040 ft | 458 kts | 355° |
| 2026-05-07 13:43 | 51.69521 | 11.07190 | 36043 ft | 459 kts | 355° |
| 2026-05-07 13:43 | 51.75888 | 11.06492 | 36038 ft | 458 kts | 355° |
| 2026-05-07 13:44 | 51.82229 | 11.05794 | 36044 ft | 455 kts | 355° |
| 2026-05-07 13:44 | 51.88533 | 11.05021 | 36045 ft | 453 kts | 353° |
| 2026-05-07 13:45 | 51.94783 | 11.03733 | 36054 ft | 452 kts | 351° |
| 2026-05-07 13:45 | 52.00968 | 11.02323 | 36056 ft | 452 kts | 351° |
| 2026-05-07 13:46 | 52.07208 | 11.00941 | 36053 ft | 452 kts | 351° |
| 2026-05-07 13:46 | 52.13445 | 10.99596 | 36056 ft | 452 kts | 352° |
| 2026-05-07 13:47 | 52.19694 | 10.98255 | 35878 ft | 456 kts | 352° |
| 2026-05-07 13:47 | 52.22860 | 10.97575 | 35306 ft | 459 kts | 352° |
| 2026-05-07 13:47 | 52.26024 | 10.96894 | 34677 ft | 458 kts | 352° |
| 2026-05-07 13:47 | 52.29185 | 10.96212 | 34028 ft | 458 kts | 352° |
| 2026-05-07 13:48 | 52.32346 | 10.95529 | 33290 ft | 457 kts | 352° |
| 2026-05-07 13:48 | 52.35475 | 10.94853 | 32807 ft | 451 kts | 352° |
| 2026-05-07 13:48 | 52.38570 | 10.94182 | 32309 ft | 446 kts | 352° |
| 2026-05-07 13:48 | 52.41627 | 10.93519 | 31806 ft | 441 kts | 352° |
| 2026-05-07 13:49 | 52.44649 | 10.92863 | 31330 ft | 436 kts | 351° |
| 2026-05-07 13:49 | 52.47639 | 10.92213 | 30862 ft | 431 kts | 351° |
| 2026-05-07 13:49 | 52.50603 | 10.91566 | 30401 ft | 427 kts | 351° |
| 2026-05-07 13:49 | 52.53539 | 10.90925 | 29902 ft | 424 kts | 351° |
| 2026-05-07 13:50 | 52.56445 | 10.90290 | 29398 ft | 419 kts | 351° |
| 2026-05-07 13:50 | 52.59314 | 10.89662 | 28903 ft | 414 kts | 351° |
| 2026-05-07 13:50 | 52.62149 | 10.89041 | 28445 ft | 409 kts | 351° |
| 2026-05-07 13:50 | 52.64951 | 10.88426 | 27977 ft | 404 kts | 351° |
| 2026-05-07 13:51 | 52.67726 | 10.87816 | 27506 ft | 400 kts | 351° |
| 2026-05-07 13:51 | 52.70471 | 10.87212 | 27055 ft | 396 kts | 351° |
| 2026-05-07 13:51 | 52.73192 | 10.86612 | 26591 ft | 393 kts | 351° |
| 2026-05-07 13:51 | 52.75888 | 10.86017 | 26142 ft | 390 kts | 351° |
| 2026-05-07 13:52 | 52.78564 | 10.85427 | 25699 ft | 386 kts | 351° |
| 2026-05-07 13:52 | 52.81219 | 10.84840 | 25252 ft | 384 kts | 351° |
| 2026-05-07 13:52 | 52.83855 | 10.84259 | 24819 ft | 381 kts | 351° |
| 2026-05-07 13:52 | 52.86470 | 10.83714 | 24425 ft | 377 kts | 352° |
| 2026-05-07 13:53 | 52.89067 | 10.83189 | 23999 ft | 375 kts | 352° |
| 2026-05-07 13:53 | 52.91652 | 10.82672 | 23559 ft | 373 kts | 352° |
| 2026-05-07 13:53 | 52.94222 | 10.82157 | 23058 ft | 371 kts | 352° |
| 2026-05-07 13:53 | 52.96778 | 10.81642 | 22597 ft | 368 kts | 352° |
| 2026-05-07 13:54 | 52.99310 | 10.81128 | 22156 ft | 365 kts | 352° |
| 2026-05-07 13:54 | 53.01823 | 10.80617 | 21734 ft | 362 kts | 352° |
| 2026-05-07 13:54 | 53.04314 | 10.80110 | 21297 ft | 360 kts | 352° |
| 2026-05-07 13:54 | 53.06795 | 10.79604 | 20873 ft | 357 kts | 352° |
| 2026-05-07 13:55 | 53.09253 | 10.79101 | 20445 ft | 355 kts | 352° |
| 2026-05-07 13:55 | 53.11696 | 10.78600 | 20034 ft | 353 kts | 352° |
| 2026-05-07 13:55 | 53.14122 | 10.78102 | 19622 ft | 350 kts | 352° |
| 2026-05-07 13:55 | 53.16505 | 10.77613 | 19221 ft | 349 kts | 352° |
| 2026-05-07 13:56 | 53.18905 | 10.77119 | 18805 ft | 347 kts | 352° |
| 2026-05-07 13:56 | 53.21297 | 10.76626 | 18405 ft | 346 kts | 352° |
| 2026-05-07 13:56 | 53.23676 | 10.76136 | 17942 ft | 344 kts | 352° |
| 2026-05-07 13:56 | 53.26047 | 10.75646 | 17499 ft | 342 kts | 352° |
| 2026-05-07 13:57 | 53.28401 | 10.75160 | 17089 ft | 340 kts | 352° |
| 2026-05-07 13:57 | 53.30737 | 10.74659 | 16699 ft | 336 kts | 348° |
| 2026-05-07 13:57 | 53.32853 | 10.73158 | 16405 ft | 331 kts | 321° |
| 2026-05-07 13:57 | 53.34335 | 10.70268 | 16174 ft | 331 kts | 298° |
| 2026-05-07 13:58 | 53.35142 | 10.66634 | 15931 ft | 337 kts | 281° |
| 2026-05-07 13:58 | 53.35226 | 10.62712 | 15704 ft | 340 kts | 266° |
| 2026-05-07 13:58 | 53.35036 | 10.58778 | 15443 ft | 338 kts | 265° |
| 2026-05-07 13:58 | 53.34804 | 10.54886 | 15185 ft | 336 kts | 264° |
| 2026-05-07 13:59 | 53.34566 | 10.51009 | 14934 ft | 334 kts | 264° |
| 2026-05-07 13:59 | 53.34334 | 10.47147 | 14649 ft | 334 kts | 264° |
| 2026-05-07 13:59 | 53.34107 | 10.43281 | 14389 ft | 333 kts | 265° |
| 2026-05-07 13:59 | 53.33886 | 10.39424 | 14118 ft | 333 kts | 265° |
| 2026-05-07 14:00 | 53.33668 | 10.35572 | 13847 ft | 332 kts | 265° |
| 2026-05-07 14:00 | 53.33451 | 10.31723 | 13558 ft | 332 kts | 265° |
| 2026-05-07 14:00 | 53.33235 | 10.27883 | 13272 ft | 331 kts | 265° |
| 2026-05-07 14:00 | 53.33019 | 10.24047 | 12979 ft | 331 kts | 265° |
| 2026-05-07 14:01 | 53.32803 | 10.20218 | 12675 ft | 330 kts | 265° |
| 2026-05-07 14:01 | 53.32585 | 10.16393 | 12333 ft | 330 kts | 265° |
| 2026-05-07 14:01 | 53.32367 | 10.12569 | 12002 ft | 330 kts | 265° |
| 2026-05-07 14:01 | 53.32149 | 10.08766 | 11663 ft | 326 kts | 264° |
| 2026-05-07 14:02 | 53.31933 | 10.05030 | 11331 ft | 322 kts | 264° |
| 2026-05-07 14:02 | 53.31718 | 10.01318 | 11004 ft | 318 kts | 264° |
| 2026-05-07 14:02 | 53.31504 | 9.97656 | 10684 ft | 316 kts | 264° |
| 2026-05-07 14:02 | 53.31290 | 9.94011 | 10362 ft | 314 kts | 264° |
| 2026-05-07 14:03 | 53.31076 | 9.90371 | 10009 ft | 314 kts | 264° |
| 2026-05-07 14:03 | 53.30860 | 9.86731 | 9615 ft | 315 kts | 264° |
| 2026-05-07 14:03 | 53.30643 | 9.83085 | 9206 ft | 315 kts | 264° |
| 2026-05-07 14:03 | 53.30429 | 9.79510 | 8794 ft | 309 kts | 264° |
| 2026-05-07 14:04 | 53.30217 | 9.75989 | 8400 ft | 300 kts | 265° |
| 2026-05-07 14:04 | 53.30010 | 9.72571 | 8000 ft | 292 kts | 265° |
| 2026-05-07 14:04 | 53.29807 | 9.69230 | 7614 ft | 286 kts | 264° |
| 2026-05-07 14:04 | 53.29609 | 9.65963 | 7229 ft | 280 kts | 265° |
| 2026-05-07 14:05 | 53.29413 | 9.62760 | 6855 ft | 275 kts | 265° |
| 2026-05-07 14:05 | 53.29528 | 9.59634 | 6456 ft | 269 kts | 292° |
| 2026-05-07 14:05 | 53.30589 | 9.57187 | 6074 ft | 257 kts | 325° |
| 2026-05-07 14:05 | 53.32149 | 9.55881 | 5685 ft | 248 kts | 348° |
| 2026-05-07 14:06 | 53.33827 | 9.55555 | 5297 ft | 240 kts | 7° |
| 2026-05-07 14:06 | 53.35439 | 9.56080 | 4924 ft | 234 kts | 18° |
| 2026-05-07 14:06 | 53.36999 | 9.56814 | 4526 ft | 231 kts | 19° |
| 2026-05-07 14:06 | 53.38552 | 9.57555 | 4144 ft | 234 kts | 18° |
| 2026-05-07 14:07 | 53.40101 | 9.58280 | 4022 ft | 227 kts | 18° |
| 2026-05-07 14:07 | 53.41615 | 9.58978 | 3998 ft | 223 kts | 18° |
| 2026-05-07 14:07 | 53.43083 | 9.59752 | 3992 ft | 219 kts | 30° |
| 2026-05-07 14:07 | 53.44215 | 9.61313 | 4004 ft | 205 kts | 45° |
| 2026-05-07 14:08 | 53.45216 | 9.62909 | 4011 ft | 191 kts | 47° |
| 2026-05-07 14:08 | 53.46091 | 9.64462 | 4000 ft | 176 kts | 50° |
| 2026-05-07 14:08 | 53.46864 | 9.65954 | 4011 ft | 168 kts | 51° |
| 2026-05-07 14:08 | 53.47618 | 9.67460 | 4012 ft | 168 kts | 52° |
| 2026-05-07 14:09 | 53.48360 | 9.68958 | 4020 ft | 165 kts | 51° |
| 2026-05-07 14:09 | 53.49095 | 9.70455 | 4037 ft | 170 kts | 52° |
| 2026-05-07 14:09 | 53.49866 | 9.72027 | 3834 ft | 175 kts | 51° |
| 2026-05-07 14:09 | 53.50633 | 9.73594 | 3592 ft | 172 kts | 51° |
| 2026-05-07 14:10 | 53.51377 | 9.75111 | 3371 ft | 166 kts | 52° |
| 2026-05-07 14:10 | 53.52097 | 9.76578 | 3148 ft | 163 kts | 52° |
| 2026-05-07 14:10 | 53.52824 | 9.78060 | 2931 ft | 163 kts | 52° |
| 2026-05-07 14:10 | 53.53553 | 9.79544 | 2716 ft | 165 kts | 52° |
| 2026-05-07 14:11 | 53.54278 | 9.81022 | 2469 ft | 163 kts | 52° |
| 2026-05-07 14:11 | 53.54999 | 9.82483 | 2249 ft | 160 kts | 51° |
| 2026-05-07 14:11 | 53.55675 | 9.83865 | 2036 ft | 145 kts | 53° |
| 2026-05-07 14:11 | 53.56295 | 9.85123 | 1844 ft | 136 kts | 53° |
| 2026-05-07 14:12 | 53.56875 | 9.86311 | 1670 ft | 129 kts | 53° |
| 2026-05-07 14:12 | 53.57432 | 9.87437 | 1518 ft | 125 kts | 52° |
| 2026-05-07 14:12 | 53.57974 | 9.88543 | 1339 ft | 123 kts | 52° |
| 2026-05-07 14:12 | 53.58508 | 9.89644 | 1165 ft | 127 kts | 52° |
| 2026-05-07 14:13 | 53.59090 | 9.90814 | 987 ft | 134 kts | 50° |
| 2026-05-07 14:13 | 53.59673 | 9.91997 | 805 ft | 131 kts | 51° |
| 2026-05-07 14:13 | 53.60062 | 9.92790 | 673 ft | 126 kts | 52° |
| 2026-05-07 14:13 | 53.60798 | 9.94272 | 450 ft | 125 kts | 52° |
| 2026-05-07 14:14 | 53.61180 | 9.95041 | 352 ft | 128 kts | 53° |
| 2026-05-07 14:14 | 53.61754 | 9.96217 | 164 ft | 127 kts | 53° |
| 2026-05-07 14:14 | 53.62302 | 9.97332 | 50 ft | 114 kts | 52° |
| 2026-05-07 14:14 | 53.62745 | 9.98228 | 49 ft | 83 kts | 50° |
| 2026-05-07 14:15 | 53.63094 | 9.98939 | 50 ft | 38 kts | 50° |
| 2026-05-07 14:15 | 53.63205 | 9.99162 | 51 ft | 36 kts | 50° |
| 2026-05-07 14:15 | 53.63289 | 9.99528 | 49 ft | 33 kts | 96° |
| 2026-05-07 14:15 | 53.63276 | 9.99704 | 49 ft | 12 kts | 87° |
| 2026-05-07 14:16 | 53.63310 | 9.99824 | 49 ft | 12 kts | 52° |
| 2026-05-07 14:16 | 53.63373 | 9.99951 | 50 ft | 18 kts | 50° |
| 2026-05-07 14:16 | 53.63421 | 10.00132 | 50 ft | 18 kts | 120° |
| 2026-05-07 14:16 | 53.63332 | 10.00169 | 50 ft | 13 kts | 177° |
| 2026-05-07 14:17 | 53.63242 | 10.00179 | 48 ft | 13 kts | 176° |
| 2026-05-07 14:17 | 53.63205 | 10.00248 | 50 ft | 8 kts | 94° |
| 2026-05-07 14:17 | 53.63208 | 10.00346 | 50 ft | 8 kts | 87° |
| 2026-05-07 14:17 | 53.63208 | 10.00359 | 50 ft | 0 kts | 89° |